sensor_id;sensor_type;location;lat;lon;timestamp;pressure;altitude;pressure_sealevel;temperature;humidity
20043;BME280;10182;52.896;6.496;2024-01-30T00:04:20;102541.63;;;5.67;100.00
20043;BME280;10182;52.896;6.496;2024-01-30T00:09:23;102539.00;;;5.65;100.00
20043;BME280;10182;52.896;6.496;2024-01-30T00:14:25;102537.25;;;5.69;100.00
20043;BME280;10182;52.896;6.496;2024-01-30T00:19:26;102534.59;;;5.61;100.00
20043;BME280;10182;52.896;6.496;2024-01-30T00:24:32;102538.97;;;5.59;100.00
20043;BME280;10182;52.896;6.496;2024-01-30T00:29:34;102539.88;;;5.67;100.00
20043;BME280;10182;52.896;6.496;2024-01-30T00:34:35;102525.88;;;5.73;100.00
20043;BME280;10182;52.896;6.496;2024-01-30T00:39:38;102530.22;;;5.69;100.00
20043;BME280;10182;52.896;6.496;2024-01-30T00:44:40;102517.09;;;5.71;100.00
20043;BME280;10182;52.896;6.496;2024-01-30T00:49:42;102517.09;;;5.74;100.00
20043;BME280;10182;52.896;6.496;2024-01-30T00:54:48;102515.34;;;5.78;100.00
20043;BME280;10182;52.896;6.496;2024-01-30T00:59:49;102515.38;;;5.84;100.00
20043;BME280;10182;52.896;6.496;2024-01-30T01:04:51;102510.09;;;5.76;100.00
20043;BME280;10182;52.896;6.496;2024-01-30T01:09:54;102508.31;;;5.75;100.00
20043;BME280;10182;52.896;6.496;2024-01-30T01:14:56;102510.97;;;5.83;100.00
20043;BME280;10182;52.896;6.496;2024-01-30T01:19:58;102507.41;;;5.59;100.00
20043;BME280;10182;52.896;6.496;2024-01-30T01:25:01;102508.28;;;5.55;100.00
20043;BME280;10182;52.896;6.496;2024-01-30T01:30:03;102507.44;;;5.68;100.00
20043;BME280;10182;52.896;6.496;2024-01-30T01:35:06;102503.94;;;5.66;100.00
20043;BME280;10182;52.896;6.496;2024-01-30T01:40:09;102499.56;;;5.62;100.00
20043;BME280;10182;52.896;6.496;2024-01-30T01:45:11;102503.06;;;5.69;100.00
20043;BME280;10182;52.896;6.496;2024-01-30T01:50:16;102497.78;;;5.59;100.00
20043;BME280;10182;52.896;6.496;2024-01-30T01:55:21;102495.16;;;5.63;100.00
20043;BME280;10182;52.896;6.496;2024-01-30T02:00:31;102495.16;;;5.78;100.00
20043;BME280;10182;52.896;6.496;2024-01-30T02:05:33;102479.41;;;5.89;100.00
20043;BME280;10182;52.896;6.496;2024-01-30T02:10:37;102473.28;;;5.85;100.00
20043;BME280;10182;52.896;6.496;2024-01-30T02:15:38;102469.78;;;5.80;100.00
20043;BME280;10182;52.896;6.496;2024-01-30T02:20:46;102468.03;;;5.84;100.00
20043;BME280;10182;52.896;6.496;2024-01-30T02:25:50;102454.88;;;5.71;100.00
20043;BME280;10182;52.896;6.496;2024-01-30T02:30:53;102456.59;;;5.68;100.00
20043;BME280;10182;52.896;6.496;2024-01-30T02:35:55;102474.09;;;5.53;100.00
20043;BME280;10182;52.896;6.496;2024-01-30T02:40:58;102465.34;;;5.51;100.00
20043;BME280;10182;52.896;6.496;2024-01-30T02:45:59;102460.97;;;5.53;100.00
20043;BME280;10182;52.896;6.496;2024-01-30T02:51:01;102451.34;;;5.55;100.00
20043;BME280;10182;52.896;6.496;2024-01-30T02:56:05;102446.06;;;5.45;100.00
20043;BME280;10182;52.896;6.496;2024-01-30T03:01:10;102440.81;;;5.41;100.00
20043;BME280;10182;52.896;6.496;2024-01-30T03:06:12;102436.44;;;5.50;100.00
20043;BME280;10182;52.896;6.496;2024-01-30T03:11:16;102442.53;;;5.42;100.00
20043;BME280;10182;52.896;6.496;2024-01-30T03:16:18;102428.56;;;5.48;100.00
20043;BME280;10182;52.896;6.496;2024-01-30T03:21:20;102421.56;;;5.56;100.00
20043;BME280;10182;52.896;6.496;2024-01-30T03:26:23;102419.81;;;5.52;100.00
20043;BME280;10182;52.896;6.496;2024-01-30T03:31:25;102412.78;;;5.61;100.00
20043;BME280;10182;52.896;6.496;2024-01-30T03:36:26;102414.53;;;5.52;100.00
20043;BME280;10182;52.896;6.496;2024-01-30T03:41:29;102393.50;;;5.69;100.00
20043;BME280;10182;52.896;6.496;2024-01-30T03:46:31;102388.22;;;5.74;100.00
20043;BME280;10182;52.896;6.496;2024-01-30T03:51:33;102385.63;;;5.77;100.00
20043;BME280;10182;52.896;6.496;2024-01-30T03:56:36;102384.72;;;5.76;100.00
20043;BME280;10182;52.896;6.496;2024-01-30T04:01:42;102383.00;;;5.69;100.00
20043;BME280;10182;52.896;6.496;2024-01-30T04:06:44;102376.84;;;5.73;100.00
20043;BME280;10182;52.896;6.496;2024-01-30T04:11:48;102373.34;;;5.84;100.00
20043;BME280;10182;52.896;6.496;2024-01-30T04:16:49;102370.72;;;5.87;100.00
20043;BME280;10182;52.896;6.496;2024-01-30T04:21:51;102369.81;;;5.97;100.00
20043;BME280;10182;52.896;6.496;2024-01-30T04:26:54;102349.66;;;6.19;100.00
20043;BME280;10182;52.896;6.496;2024-01-30T04:31:58;102371.56;;;6.12;100.00
20043;BME280;10182;52.896;6.496;2024-01-30T04:37:00;102351.38;;;6.19;100.00
20043;BME280;10182;52.896;6.496;2024-01-30T04:42:03;102370.69;;;6.16;100.00
20043;BME280;10182;52.896;6.496;2024-01-30T04:47:05;102378.56;;;6.16;100.00
20043;BME280;10182;52.896;6.496;2024-01-30T04:52:09;102357.50;;;6.18;100.00
20043;BME280;10182;52.896;6.496;2024-01-30T04:57:12;102354.88;;;6.16;100.00
20043;BME280;10182;52.896;6.496;2024-01-30T05:02:14;102343.47;;;6.19;100.00
20043;BME280;10182;52.896;6.496;2024-01-30T05:07:16;102332.94;;;6.26;100.00
20043;BME280;10182;52.896;6.496;2024-01-30T05:12:20;102328.53;;;6.33;100.00
20043;BME280;10182;52.896;6.496;2024-01-30T05:17:21;102329.41;;;6.40;100.00
20043;BME280;10182;52.896;6.496;2024-01-30T05:22:23;102339.03;;;6.44;100.00
20043;BME280;10182;52.896;6.496;2024-01-30T05:27:26;102322.34;;;6.47;100.00
20043;BME280;10182;52.896;6.496;2024-01-30T05:32:28;102334.66;;;6.37;100.00
20043;BME280;10182;52.896;6.496;2024-01-30T05:37:29;102339.03;;;6.42;100.00
20043;BME280;10182;52.896;6.496;2024-01-30T05:42:32;102329.38;;;6.43;100.00
20043;BME280;10182;52.896;6.496;2024-01-30T05:47:34;102331.13;;;6.41;100.00
20043;BME280;10182;52.896;6.496;2024-01-30T05:52:36;102344.28;;;6.41;100.00
20043;BME280;10182;52.896;6.496;2024-01-30T05:57:43;102345.19;;;6.40;100.00
20043;BME280;10182;52.896;6.496;2024-01-30T06:02:45;102332.84;;;6.45;100.00
20043;BME280;10182;52.896;6.496;2024-01-30T06:07:46;102339.88;;;6.46;100.00
20043;BME280;10182;52.896;6.496;2024-01-30T06:12:49;102353.97;;;6.39;100.00
20043;BME280;10182;52.896;6.496;2024-01-30T06:17:51;102343.47;;;6.34;100.00
20043;BME280;10182;52.896;6.496;2024-01-30T06:22:53;102335.56;;;6.34;100.00
20043;BME280;10182;52.896;6.496;2024-01-30T06:27:56;102327.59;;;6.43;100.00
20043;BME280;10182;52.896;6.496;2024-01-30T06:32:57;102327.63;;;6.40;100.00
20043;BME280;10182;52.896;6.496;2024-01-30T06:37:59;102304.81;;;6.44;100.00
20043;BME280;10182;52.896;6.496;2024-01-30T06:43:04;102295.94;;;6.64;100.00
20043;BME280;10182;52.896;6.496;2024-01-30T06:48:07;102292.41;;;6.60;100.00
20043;BME280;10182;52.896;6.496;2024-01-30T06:53:11;102295.88;;;6.68;100.00
20043;BME280;10182;52.896;6.496;2024-01-30T06:58:16;102288.84;;;6.72;100.00
20043;BME280;10182;52.896;6.496;2024-01-30T07:03:18;102307.25;;;6.76;100.00
20043;BME280;10182;52.896;6.496;2024-01-30T07:08:22;102299.34;;;6.81;100.00
20043;BME280;10182;52.896;6.496;2024-01-30T07:13:27;102289.63;;;6.89;100.00
20043;BME280;10182;52.896;6.496;2024-01-30T07:18:31;102334.47;;;6.80;100.00
20043;BME280;10182;52.896;6.496;2024-01-30T07:23:32;102334.47;;;6.80;100.00
20043;BME280;10182;52.896;6.496;2024-01-30T07:28:36;102344.97;;;6.83;100.00
20043;BME280;10182;52.896;6.496;2024-01-30T07:33:38;102332.66;;;6.87;100.00
20043;BME280;10182;52.896;6.496;2024-01-30T07:38:40;102322.13;;;6.87;100.00
20043;BME280;10182;52.896;6.496;2024-01-30T07:43:43;102328.25;;;6.90;100.00
20043;BME280;10182;52.896;6.496;2024-01-30T07:48:45;102337.91;;;6.93;100.00
20043;BME280;10182;52.896;6.496;2024-01-30T07:53:53;102328.16;;;7.04;100.00
20043;BME280;10182;52.896;6.496;2024-01-30T07:58:56;102335.16;;;7.10;100.00
20043;BME280;10182;52.896;6.496;2024-01-30T08:03:58;102332.50;;;7.11;100.00
20043;BME280;10182;52.896;6.496;2024-01-30T08:09:03;102325.44;;;7.17;100.00
20043;BME280;10182;52.896;6.496;2024-01-30T08:14:06;102341.22;;;7.26;100.00
20043;BME280;10182;52.896;6.496;2024-01-30T08:19:08;102350.78;;;7.35;100.00
20043;BME280;10182;52.896;6.496;2024-01-30T08:24:09;102322.63;;;7.41;100.00
20043;BME280;10182;52.896;6.496;2024-01-30T08:29:12;102344.56;;;7.42;100.00
20043;BME280;10182;52.896;6.496;2024-01-30T08:34:14;102338.41;;;7.44;100.00
20043;BME280;10182;52.896;6.496;2024-01-30T08:39:16;102338.41;;;7.43;100.00
20043;BME280;10182;52.896;6.496;2024-01-30T08:44:19;102350.66;;;7.50;100.00
20043;BME280;10182;52.896;6.496;2024-01-30T08:49:21;102357.66;;;7.57;100.00
20043;BME280;10182;52.896;6.496;2024-01-30T08:54:23;102365.56;;;7.57;100.00
20043;BME280;10182;52.896;6.496;2024-01-30T08:59:26;102365.47;;;7.68;100.00
20043;BME280;10182;52.896;6.496;2024-01-30T09:04:27;102367.25;;;7.65;100.00
20043;BME280;10182;52.896;6.496;2024-01-30T09:09:29;102369.81;;;7.71;100.00
20043;BME280;10182;52.896;6.496;2024-01-30T09:14:32;102369.78;;;7.78;100.00
20043;BME280;10182;52.896;6.496;2024-01-30T09:19:34;102372.34;;;7.86;100.00
20043;BME280;10182;52.896;6.496;2024-01-30T09:24:35;102377.53;;;7.97;100.00
20043;BME280;10182;52.896;6.496;2024-01-30T09:29:38;102372.97;;;8.11;100.00
20043;BME280;10182;52.896;6.496;2024-01-30T09:34:40;102372.88;;;8.21;100.00
20043;BME280;10182;52.896;6.496;2024-01-30T09:39:42;102377.97;;;8.39;100.00
20043;BME280;10182;52.896;6.496;2024-01-30T09:44:47;102370.75;;;8.55;100.00
20043;BME280;10182;52.896;6.496;2024-01-30T09:49:52;102381.97;;;8.73;100.00
20043;BME280;10182;52.896;6.496;2024-01-30T09:54:54;102382.66;;;8.86;100.00
20043;BME280;10182;52.896;6.496;2024-01-30T09:59:57;102387.03;;;8.90;100.00
20043;BME280;10182;52.896;6.496;2024-01-30T10:04:59;102386.97;;;8.94;100.00
20043;BME280;10182;52.896;6.496;2024-01-30T10:10:01;102384.25;;;8.99;100.00
20043;BME280;10182;52.896;6.496;2024-01-30T10:15:07;102374.47;;;9.06;100.00
20043;BME280;10182;52.896;6.496;2024-01-30T10:20:10;102361.06;;;9.20;100.00
20043;BME280;10182;52.896;6.496;2024-01-30T10:25:12;102358.31;;;9.26;100.00
20043;BME280;10182;52.896;6.496;2024-01-30T10:30:15;102362.44;;;9.44;100.00
20043;BME280;10182;52.896;6.496;2024-01-30T10:35:17;102362.38;;;9.47;100.00
20043;BME280;10182;52.896;6.496;2024-01-30T10:40:21;102360.56;;;9.51;100.00
20043;BME280;10182;52.896;6.496;2024-01-30T10:45:27;102372.84;;;9.55;100.00
20043;BME280;10182;52.896;6.496;2024-01-30T10:50:32;102382.69;;;9.46;100.00
20043;BME280;10182;52.896;6.496;2024-01-30T10:55:36;102384.50;;;9.43;100.00
20043;BME280;10182;52.896;6.496;2024-01-30T11:00:39;102388.00;;;9.45;100.00
20043;BME280;10182;52.896;6.496;2024-01-30T11:05:42;102392.31;;;9.51;100.00
20043;BME280;10182;52.896;6.496;2024-01-30T11:10:46;102389.59;;;9.57;100.00
20043;BME280;10182;52.896;6.496;2024-01-30T11:15:50;102378.06;;;9.61;100.00
20043;BME280;10182;52.896;6.496;2024-01-30T11:20:51;102380.69;;;9.59;100.00
20043;BME280;10182;52.896;6.496;2024-01-30T11:25:54;102391.28;;;9.59;100.00
20043;BME280;10182;52.896;6.496;2024-01-30T11:31:04;102389.56;;;9.58;100.00
20043;BME280;10182;52.896;6.496;2024-01-30T11:36:06;102374.50;;;9.62;100.00
20043;BME280;10182;52.896;6.496;2024-01-30T11:41:09;102370.78;;;9.74;100.00
20043;BME280;10182;52.896;6.496;2024-01-30T11:46:15;102364.41;;;9.84;100.00
20043;BME280;10182;52.896;6.496;2024-01-30T11:51:17;102376.59;;;9.94;100.00
20043;BME280;10182;52.896;6.496;2024-01-30T11:56:21;102373.81;;;10.02;100.00
20043;BME280;10182;52.896;6.496;2024-01-30T12:01:24;102381.72;;;10.04;100.00
20043;BME280;10182;52.896;6.496;2024-01-30T12:06:26;102392.69;;;9.82;100.00
20043;BME280;10182;52.896;6.496;2024-01-30T12:11:28;102400.19;;;9.54;100.00
20043;BME280;10182;52.896;6.496;2024-01-30T12:16:31;102407.66;;;9.28;100.00
20043;BME280;10182;52.896;6.496;2024-01-30T12:21:34;102396.28;;;9.22;100.00
20043;BME280;10182;52.896;6.496;2024-01-30T12:26:38;102405.81;;;9.32;100.00
20043;BME280;10182;52.896;6.496;2024-01-30T12:31:46;102389.06;;;9.33;100.00
20043;BME280;10182;52.896;6.496;2024-01-30T12:36:47;102407.72;;;9.25;100.00
20043;BME280;10182;52.896;6.496;2024-01-30T12:41:54;102413.91;;;9.23;100.00
20043;BME280;10182;52.896;6.496;2024-01-30T12:46:57;102419.19;;;9.23;100.00
20043;BME280;10182;52.896;6.496;2024-01-30T12:51:59;102404.25;;;9.20;100.00
20043;BME280;10182;52.896;6.496;2024-01-30T12:57:01;102395.47;;;9.17;100.00
20043;BME280;10182;52.896;6.496;2024-01-30T13:02:06;102400.00;;;9.08;100.00
20043;BME280;10182;52.896;6.496;2024-01-30T13:07:09;102408.81;;;9.07;100.00
20043;BME280;10182;52.896;6.496;2024-01-30T13:12:13;102411.50;;;9.04;100.00
20043;BME280;10182;52.896;6.496;2024-01-30T13:17:17;102411.56;;;9.01;100.00
20043;BME280;10182;52.896;6.496;2024-01-30T13:22:18;102413.47;;;8.91;100.00
20043;BME280;10182;52.896;6.496;2024-01-30T13:27:21;102411.75;;;8.87;100.00
20043;BME280;10182;52.896;6.496;2024-01-30T13:32:24;102417.91;;;8.88;100.00
20043;BME280;10182;52.896;6.496;2024-01-30T13:37:26;102426.69;;;8.88;100.00
20043;BME280;10182;52.896;6.496;2024-01-30T13:42:28;102413.44;;;8.93;100.00
20043;BME280;10182;52.896;6.496;2024-01-30T13:47:34;102420.22;;;9.11;100.00
20043;BME280;10182;52.896;6.496;2024-01-30T13:52:37;102414.25;;;8.98;100.00
20043;BME280;10182;52.896;6.496;2024-01-30T13:57:39;102413.41;;;8.94;100.00
20043;BME280;10182;52.896;6.496;2024-01-30T14:02:42;102414.31;;;8.92;100.00
20043;BME280;10182;52.896;6.496;2024-01-30T14:07:44;102416.09;;;8.90;100.00
20043;BME280;10182;52.896;6.496;2024-01-30T14:12:46;102417.97;;;8.81;100.00
20043;BME280;10182;52.896;6.496;2024-01-30T14:17:49;102425.19;;;8.67;100.00
20043;BME280;10182;52.896;6.496;2024-01-30T14:22:51;102427.97;;;8.56;100.00
20043;BME280;10182;52.896;6.496;2024-01-30T14:27:58;102443.06;;;8.45;100.00
20043;BME280;10182;52.896;6.496;2024-01-30T14:33:05;102448.28;;;8.50;100.00
20043;BME280;10182;52.896;6.496;2024-01-30T14:38:07;102445.81;;;8.33;100.00
20043;BME280;10182;52.896;6.496;2024-01-30T14:43:10;102445.84;;;8.26;100.00
20043;BME280;10182;52.896;6.496;2024-01-30T14:48:17;102459.97;;;8.22;100.00
20043;BME280;10182;52.896;6.496;2024-01-30T14:53:19;102454.78;;;8.11;100.00
20043;BME280;10182;52.896;6.496;2024-01-30T14:58:21;102466.34;;;7.96;100.00
20043;BME280;10182;52.896;6.496;2024-01-30T15:03:24;102473.44;;;7.88;100.00
20043;BME280;10182;52.896;6.496;2024-01-30T15:08:25;102475.22;;;7.89;100.00
20043;BME280;10182;52.896;6.496;2024-01-30T15:13:27;102483.19;;;7.85;100.00
20043;BME280;10182;52.896;6.496;2024-01-30T15:18:30;102486.72;;;7.81;100.00
20043;BME280;10182;52.896;6.496;2024-01-30T15:23:32;102507.03;;;7.66;100.00
20043;BME280;10182;52.896;6.496;2024-01-30T15:28:34;102503.53;;;7.61;100.00
20043;BME280;10182;52.896;6.496;2024-01-30T15:33:43;102507.09;;;7.57;100.00
20043;BME280;10182;52.896;6.496;2024-01-30T15:38:44;102520.28;;;7.55;100.00
20043;BME280;10182;52.896;6.496;2024-01-30T15:43:46;102526.44;;;7.54;100.00
20043;BME280;10182;52.896;6.496;2024-01-30T15:48:49;102529.09;;;7.53;100.00
20043;BME280;10182;52.896;6.496;2024-01-30T15:53:51;102531.72;;;7.53;100.00
20043;BME280;10182;52.896;6.496;2024-01-30T15:58:52;102540.53;;;7.47;100.00
20043;BME280;10182;52.896;6.496;2024-01-30T16:03:55;102544.06;;;7.46;100.00
20043;BME280;10182;52.896;6.496;2024-01-30T16:08:57;102553.75;;;7.44;100.00
20043;BME280;10182;52.896;6.496;2024-01-30T16:13:59;102568.69;;;7.42;100.00
20043;BME280;10182;52.896;6.496;2024-01-30T16:19:02;102569.56;;;7.39;100.00
20043;BME280;10182;52.896;6.496;2024-01-30T16:24:04;102584.56;;;7.34;100.00
20043;BME280;10182;52.896;6.496;2024-01-30T16:29:08;102591.56;;;7.35;100.00
20043;BME280;10182;52.896;6.496;2024-01-30T16:34:11;102608.28;;;7.29;100.00
20043;BME280;10182;52.896;6.496;2024-01-30T16:39:13;102613.59;;;7.22;100.00
20043;BME280;10182;52.896;6.496;2024-01-30T16:44:14;102615.38;;;7.14;100.00
20043;BME280;10182;52.896;6.496;2024-01-30T16:49:18;102625.91;;;7.17;100.00
20043;BME280;10182;52.896;6.496;2024-01-30T16:54:19;102633.81;;;7.18;100.00
20043;BME280;10182;52.896;6.496;2024-01-30T16:59:23;102628.53;;;7.17;100.00
20043;BME280;10182;52.896;6.496;2024-01-30T17:04:26;102646.13;;;7.08;100.00
20043;BME280;10182;52.896;6.496;2024-01-30T17:09:31;102658.44;;;7.09;100.00
20043;BME280;10182;52.896;6.496;2024-01-30T17:14:33;102668.97;;;7.05;100.00
20043;BME280;10182;52.896;6.496;2024-01-30T17:19:41;102671.63;;;6.99;100.00
20043;BME280;10182;52.896;6.496;2024-01-30T17:24:42;102683.91;;;7.04;100.00
20043;BME280;10182;52.896;6.496;2024-01-30T17:29:44;102700.59;;;6.91;100.00
20043;BME280;10182;52.896;6.496;2024-01-30T17:34:47;102707.63;;;6.83;100.00
20043;BME280;10182;52.896;6.496;2024-01-30T17:39:49;102717.28;;;6.77;100.00
20043;BME280;10182;52.896;6.496;2024-01-30T17:44:50;102725.19;;;6.71;100.00
20043;BME280;10182;52.896;6.496;2024-01-30T17:49:53;102734.84;;;6.63;100.00
20043;BME280;10182;52.896;6.496;2024-01-30T17:54:55;102752.38;;;6.59;100.00
20043;BME280;10182;52.896;6.496;2024-01-30T17:59:57;102757.63;;;6.56;100.00
20043;BME280;10182;52.896;6.496;2024-01-30T18:05:00;102766.41;;;6.51;100.00
20043;BME280;10182;52.896;6.496;2024-01-30T18:10:01;102770.78;;;6.49;100.00
20043;BME280;10182;52.896;6.496;2024-01-30T18:15:09;102775.13;;;6.43;100.00
20043;BME280;10182;52.896;6.496;2024-01-30T18:20:14;102783.94;;;6.42;100.00
20043;BME280;10182;52.896;6.496;2024-01-30T18:25:16;102789.16;;;6.41;100.00
20043;BME280;10182;52.896;6.496;2024-01-30T18:30:18;102797.97;;;6.43;100.00
20043;BME280;10182;52.896;6.496;2024-01-30T18:35:21;102802.31;;;6.41;100.00
20043;BME280;10182;52.896;6.496;2024-01-30T18:40:23;102814.63;;;6.36;100.00
20043;BME280;10182;52.896;6.496;2024-01-30T18:45:24;102828.66;;;6.33;100.00
20043;BME280;10182;52.896;6.496;2024-01-30T18:50:27;102833.91;;;6.33;100.00
20043;BME280;10182;52.896;6.496;2024-01-30T18:55:29;102846.16;;;6.33;100.00
20043;BME280;10182;52.896;6.496;2024-01-30T19:00:31;102856.69;;;6.25;100.00
20043;BME280;10182;52.896;6.496;2024-01-30T19:05:38;102861.91;;;6.22;100.00
20043;BME280;10182;52.896;6.496;2024-01-30T19:10:41;102868.03;;;6.16;100.00
20043;BME280;10182;52.896;6.496;2024-01-30T19:15:43;102875.97;;;6.21;100.00
20043;BME280;10182;52.896;6.496;2024-01-30T19:20:46;102884.72;;;6.18;100.00
20043;BME280;10182;52.896;6.496;2024-01-30T19:25:48;102886.44;;;6.18;100.00
20043;BME280;10182;52.896;6.496;2024-01-30T19:30:50;102896.09;;;6.16;100.00
20043;BME280;10182;52.896;6.496;2024-01-30T19:35:53;102904.84;;;6.15;100.00
20043;BME280;10182;52.896;6.496;2024-01-30T19:40:55;102918.88;;;6.14;100.00
20043;BME280;10182;52.896;6.496;2024-01-30T19:45:57;102923.28;;;6.16;100.00
20043;BME280;10182;52.896;6.496;2024-01-30T19:51:01;102937.28;;;6.07;100.00
20043;BME280;10182;52.896;6.496;2024-01-30T19:56:03;102944.25;;;6.05;100.00
20043;BME280;10182;52.896;6.496;2024-01-30T20:01:08;102953.81;;;5.96;100.00
20043;BME280;10182;52.896;6.496;2024-01-30T20:06:13;102960.81;;;5.93;100.00
20043;BME280;10182;52.896;6.496;2024-01-30T20:11:17;102977.44;;;5.89;100.00
20043;BME280;10182;52.896;6.496;2024-01-30T20:16:19;102987.81;;;5.72;100.00
20043;BME280;10182;52.896;6.496;2024-01-30T20:21:22;103004.47;;;5.71;100.00
20043;BME280;10182;52.896;6.496;2024-01-30T20:26:24;102998.19;;;5.60;100.00
20043;BME280;10182;52.896;6.496;2024-01-30T20:31:26;103001.63;;;5.50;100.00
20043;BME280;10182;52.896;6.496;2024-01-30T20:36:29;103012.16;;;5.53;100.00
20043;BME280;10182;52.896;6.496;2024-01-30T20:41:37;103015.66;;;5.52;100.00
20043;BME280;10182;52.896;6.496;2024-01-30T20:46:39;103023.44;;;5.42;100.00
20043;BME280;10182;52.896;6.496;2024-01-30T20:51:45;103035.81;;;5.51;100.00
20043;BME280;10182;52.896;6.496;2024-01-30T20:56:46;103049.84;;;5.55;100.00
20043;BME280;10182;52.896;6.496;2024-01-30T21:01:48;103057.69;;;5.49;100.00
20043;BME280;10182;52.896;6.496;2024-01-30T21:06:51;103062.91;;;5.44;100.00
20043;BME280;10182;52.896;6.496;2024-01-30T21:11:55;103056.69;;;5.37;100.00
20043;BME280;10182;52.896;6.496;2024-01-30T21:16:57;103082.72;;;5.17;100.00
20043;BME280;10182;52.896;6.496;2024-01-30T21:22:00;103088.78;;;5.13;100.00
20043;BME280;10182;52.896;6.496;2024-01-30T21:27:02;103093.09;;;5.08;100.00
20043;BME280;10182;52.896;6.496;2024-01-30T21:32:04;103093.13;;;5.11;100.00
20043;BME280;10182;52.896;6.496;2024-01-30T21:37:07;103097.47;;;5.06;100.00
20043;BME280;10182;52.896;6.496;2024-01-30T21:42:09;103093.03;;;5.03;100.00
20043;BME280;10182;52.896;6.496;2024-01-30T21:47:11;103098.31;;;5.05;100.00
20043;BME280;10182;52.896;6.496;2024-01-30T21:52:14;103102.63;;;5.01;100.00
20043;BME280;10182;52.896;6.496;2024-01-30T21:57:16;103102.47;;;4.90;100.00
20043;BME280;10182;52.896;6.496;2024-01-30T22:02:17;103106.88;;;4.91;100.00
20043;BME280;10182;52.896;6.496;2024-01-30T22:07:20;103112.16;;;4.95;100.00
20043;BME280;10182;52.896;6.496;2024-01-30T22:12:23;103120.00;;;4.91;100.00
20043;BME280;10182;52.896;6.496;2024-01-30T22:17:24;103124.44;;;4.96;100.00
20043;BME280;10182;52.896;6.496;2024-01-30T22:22:27;103134.06;;;4.94;100.00
20043;BME280;10182;52.896;6.496;2024-01-30T22:27:29;103144.66;;;5.01;100.00
20043;BME280;10182;52.896;6.496;2024-01-30T22:32:31;103153.31;;;4.94;100.00
20043;BME280;10182;52.896;6.496;2024-01-30T22:37:34;103152.38;;;4.90;100.00
20043;BME280;10182;52.896;6.496;2024-01-30T22:42:35;103140.00;;;4.82;100.00
20043;BME280;10182;52.896;6.496;2024-01-30T22:47:37;103147.03;;;4.83;100.00
20043;BME280;10182;52.896;6.496;2024-01-30T22:52:40;103155.81;;;4.86;100.00
20043;BME280;10182;52.896;6.496;2024-01-30T22:57:42;103166.34;;;4.88;100.00
20043;BME280;10182;52.896;6.496;2024-01-30T23:02:44;103161.91;;;4.84;100.00
20043;BME280;10182;52.896;6.496;2024-01-30T23:07:48;103165.28;;;4.77;100.00
20043;BME280;10182;52.896;6.496;2024-01-30T23:12:50;103165.13;;;4.67;100.00
20043;BME280;10182;52.896;6.496;2024-01-30T23:17:52;103167.72;;;4.64;100.00
20043;BME280;10182;52.896;6.496;2024-01-30T23:22:55;103174.75;;;4.67;100.00
20043;BME280;10182;52.896;6.496;2024-01-30T23:27:56;103171.34;;;4.71;100.00
20043;BME280;10182;52.896;6.496;2024-01-30T23:32:58;103181.00;;;4.73;100.00
20043;BME280;10182;52.896;6.496;2024-01-30T23:38:01;103193.25;;;4.73;100.00
20043;BME280;10182;52.896;6.496;2024-01-30T23:43:03;103215.13;;;4.73;100.00
20043;BME280;10182;52.896;6.496;2024-01-30T23:48:06;103212.56;;;4.77;100.00
20043;BME280;10182;52.896;6.496;2024-01-30T23:53:10;103207.22;;;4.70;100.00
20043;BME280;10182;52.896;6.496;2024-01-30T23:58:11;103207.25;;;4.72;100.00
